Time;durP1;ratioP1;P1;durP2;ratioP2;P2;SDS_P1;SDS_P2;PMS_P1;PMS_P2;Temp;Humidity;BMP_temperature;BMP_pressure;BME280_temperature;BME280_humidity;BME280_pressure;Samples;Min_cycle;Max_cycle;Signal;HPM_P1;HPM_P2
2022/09/26 00:01:36;;;;;;;4.65;1.40;;;8.40;99.90;;;;;;5024214;28;20441;-86
2022/09/26 00:04:15;;;;;;;4.07;1.52;;;8.50;99.90;;;;;;5008480;28;20935;-86
2022/09/26 00:06:43;;;;;;;5.97;1.90;;;8.50;99.90;;;;;;5007726;28;20478;-85
2022/09/26 00:09:11;;;;;;;5.45;2.03;;;8.50;99.90;;;;;;5008345;28;20892;-86
2022/09/26 00:11:39;;;;;;;5.47;1.48;;;8.50;99.90;;;;;;5007727;28;20912;-86
2022/09/26 00:14:28;;;;;;;5.32;1.65;;;8.50;99.90;;;;;;5013566;28;20494;-85
2022/09/26 00:16:56;;;;;;;3.00;1.60;;;8.40;99.90;;;;;;5024111;28;20391;-85
2022/09/26 00:19:24;;;;;;;3.40;1.60;;;8.40;99.90;;;;;;5007465;28;20427;-86
2022/09/26 00:21:52;;;;;;;4.03;1.20;;;8.30;99.90;;;;;;5009439;28;20431;-85
2022/09/26 00:24:20;;;;;;;3.20;1.60;;;8.30;99.90;;;;;;5012137;28;20402;-86
2022/09/26 00:26:48;;;;;;;7.05;1.90;;;8.20;99.90;;;;;;5011722;28;20768;-85
2022/09/26 00:29:15;;;;;;;2.20;1.40;;;8.20;99.90;;;;;;5013172;28;20391;-85
2022/09/26 00:31:46;;;;;;;4.75;1.80;;;8.30;99.90;;;;;;5012787;28;20465;-86
2022/09/26 00:34:17;;;;;;;3.65;1.40;;;8.20;99.90;;;;;;5011444;28;20399;-85
2022/09/26 00:36:44;;;;;;;2.08;1.55;;;8.20;99.90;;;;;;5011591;28;20971;-86
2022/09/26 00:39:14;;;;;;;3.35;1.48;;;8.10;99.90;;;;;;5013479;28;20394;-86
2022/09/26 00:41:43;;;;;;;2.38;1.40;;;8.10;99.90;;;;;;5013206;28;20399;-85
2022/09/26 00:44:47;;;;;;;2.60;1.80;;;8.00;99.90;;;;;;5013116;28;20399;-85
2022/09/26 00:47:35;;;;;;;4.00;1.47;;;8.00;99.90;;;;;;5011194;28;20403;-86
2022/09/26 00:50:25;;;;;;;2.43;1.50;;;8.00;99.90;;;;;;5012432;28;20395;-86
2022/09/26 00:53:03;;;;;;;3.63;1.70;;;7.80;99.90;;;;;;5013110;28;20395;-85
2022/09/26 00:55:35;;;;;;;2.70;1.90;;;7.80;99.90;;;;;;5012733;28;20391;-86
2022/09/26 00:58:11;;;;;;;2.83;1.40;;;7.90;99.90;;;;;;5012420;28;20760;-85
2022/09/26 01:00:42;;;;;;;2.75;1.80;;;7.90;99.90;;;;;;5011361;28;20490;-84
2022/09/26 01:03:10;;;;;;;5.57;1.60;;;7.80;99.90;;;;;;5010988;28;20395;-86
2022/09/26 01:05:38;;;;;;;6.28;1.80;;;7.90;99.90;;;;;;5011110;28;20398;-85
2022/09/26 01:08:08;;;;;;;3.30;1.60;;;7.90;99.90;;;;;;5010834;28;20406;-85
2022/09/26 01:10:36;;;;;;;3.27;1.70;;;7.90;99.90;;;;;;5012032;28;20406;-87
2022/09/26 01:13:07;;;;;;;2.97;1.58;;;7.90;99.90;;;;;;5012154;28;20945;-85
2022/09/26 01:15:35;;;;;;;3.10;1.42;;;7.90;99.90;;;;;;5010567;28;20893;-85
2022/09/26 01:18:06;;;;;;;3.33;1.40;;;7.80;99.90;;;;;;5011851;28;20466;-86
2022/09/26 01:20:55;;;;;;;3.63;1.67;;;7.80;99.90;;;;;;5012190;28;20474;-84
2022/09/26 01:23:58;;;;;;;4.32;1.30;;;7.70;99.90;;;;;;5012353;28;20395;-85
2022/09/26 01:26:56;;;;;;;2.92;1.58;;;7.70;99.90;;;;;;5010504;28;20394;-86
2022/09/26 01:29:37;;;;;;;2.90;1.50;;;7.60;99.90;;;;;;5025869;28;20434;-84
2022/09/26 01:35:20;;;;;;;2.50;1.83;;;7.60;99.90;;;;;;5011240;28;20881;-86
2022/09/26 01:38:19;;;;;;;3.60;1.80;;;7.50;99.90;;;;;;5011511;28;20393;-85
2022/09/26 01:40:57;;;;;;;4.05;1.90;;;7.40;99.90;;;;;;4991541;28;20438;-86
2022/09/26 01:43:53;;;;;;;5.00;1.85;;;7.30;99.90;;;;;;5010254;28;20427;-84
2022/09/26 01:46:39;;;;;;;3.03;1.50;;;7.40;99.90;;;;;;5010471;28;20414;-85
2022/09/26 01:49:23;;;;;;;2.13;1.67;;;7.50;99.90;;;;;;5009872;28;20944;-84
2022/09/26 01:52:04;;;;;;;2.70;1.60;;;7.60;99.90;;;;;;5010020;28;20932;-86
2022/09/26 01:54:53;;;;;;;2.72;1.60;;;7.50;99.90;;;;;;5011357;28;20408;-84
2022/09/26 01:57:28;;;;;;;5.57;1.60;;;7.50;99.90;;;;;;5009831;28;20821;-85
2022/09/26 02:00:01;;;;;;;2.55;1.48;;;7.50;99.90;;;;;;5009971;28;20387;-84
2022/09/26 02:02:34;;;;;;;2.90;1.55;;;7.40;99.90;;;;;;5010228;28;20403;-86
2022/09/26 02:05:17;;;;;;;2.97;1.45;;;7.40;99.90;;;;;;5011284;28;21035;-85
2022/09/26 02:07:58;;;;;;;4.32;1.90;;;7.40;99.90;;;;;;5009306;28;20517;-85
2022/09/26 02:10:35;;;;;;;3.20;1.58;;;7.40;99.90;;;;;;5009384;28;20409;-86
2022/09/26 02:13:15;;;;;;;2.85;1.38;;;7.30;99.90;;;;;;5009731;28;20405;-85
2022/09/26 02:15:47;;;;;;;3.33;1.50;;;7.30;99.90;;;;;;5009836;28;20403;-86
2022/09/26 02:18:26;;;;;;;3.50;1.70;;;7.30;99.90;;;;;;5009554;28;20500;-86
2022/09/26 02:21:04;;;;;;;2.70;1.50;;;7.30;99.90;;;;;;5010785;28;20479;-82
2022/09/26 02:23:32;;;;;;;2.97;1.60;;;7.20;99.90;;;;;;5024828;28;20505;-87
2022/09/26 02:26:00;;;;;;;2.83;1.40;;;7.30;99.90;;;;;;4996100;28;20408;-85
2022/09/26 02:28:28;;;;;;;4.37;1.97;;;7.20;99.90;;;;;;5030717;28;20408;-86
2022/09/26 02:30:58;;;;;;;2.70;1.83;;;7.10;99.90;;;;;;5028972;28;20472;-85
2022/09/26 02:33:27;;;;;;;4.32;1.50;;;7.10;99.90;;;;;;5025719;28;20417;-85
2022/09/26 02:35:56;;;;;;;2.77;1.50;;;7.20;99.90;;;;;;5009104;28;20720;-85
2022/09/26 02:38:30;;;;;;;3.70;1.60;;;7.20;99.90;;;;;;5009326;28;20391;-86
2022/09/26 02:41:54;;;;;;;2.33;1.57;;;7.20;99.90;;;;;;4991280;28;20427;-87
2022/09/26 02:44:48;;;;;;;1.60;1.25;;;7.20;99.90;;;;;;5017386;28;20407;-85
2022/09/26 02:47:34;;;;;;;4.80;1.40;;;7.20;99.90;;;;;;5008540;28;20403;-86
2022/09/26 02:50:30;;;;;;;3.67;1.65;;;7.20;99.90;;;;;;5009156;28;20404;-84
2022/09/26 02:53:20;;;;;;;2.13;1.40;;;7.20;99.90;;;;;;5009253;28;20413;-86
2022/09/26 02:56:02;;;;;;;2.03;1.52;;;7.20;99.90;;;;;;5009159;28;20490;-84
2022/09/26 02:58:35;;;;;;;3.40;1.70;;;7.20;99.90;;;;;;5009035;28;20403;-86
2022/09/26 03:01:07;;;;;;;1.95;1.58;;;7.20;99.90;;;;;;5014097;28;20406;-85
2022/09/26 03:03:56;;;;;;;2.30;1.60;;;7.20;99.90;;;;;;5025296;28;20403;-85
2022/09/26 03:06:30;;;;;;;3.13;1.67;;;7.20;99.90;;;;;;5027531;28;20433;-86
2022/09/26 03:09:00;;;;;;;1.65;1.42;;;7.20;99.90;;;;;;5029183;28;20484;-86
2022/09/26 03:11:29;;;;;;;3.50;1.63;;;7.20;99.90;;;;;;5029837;28;20415;-86
2022/09/26 03:13:58;;;;;;;3.30;1.25;;;7.20;99.90;;;;;;5028160;28;20949;-84
2022/09/26 03:16:31;;;;;;;2.80;1.40;;;7.10;99.90;;;;;;5028306;28;20397;-86
2022/09/26 03:19:38;;;;;;;2.67;1.55;;;7.20;99.90;;;;;;5029693;28;20492;-86
2022/09/26 03:22:06;;;;;;;3.47;1.50;;;7.10;99.90;;;;;;5006557;28;20410;-87
2022/09/26 03:24:36;;;;;;;2.10;1.50;;;7.10;99.90;;;;;;5028410;28;20393;-84
2022/09/26 03:27:04;;;;;;;3.30;1.60;;;7.10;99.90;;;;;;5029266;28;20393;-86
2022/09/26 03:29:34;;;;;;;2.78;1.50;;;7.10;99.90;;;;;;5027906;28;20398;-84
2022/09/26 03:32:04;;;;;;;2.40;1.40;;;7.10;99.90;;;;;;5027847;28;20844;-87
2022/09/26 03:34:33;;;;;;;3.35;1.52;;;7.10;99.90;;;;;;5027968;28;20408;-87
2022/09/26 03:37:01;;;;;;;2.58;1.45;;;7.00;99.90;;;;;;5027909;28;20397;-86
2022/09/26 03:39:29;;;;;;;2.70;1.50;;;7.10;99.90;;;;;;5018872;28;20491;-86
2022/09/26 03:42:03;;;;;;;2.90;1.52;;;7.00;99.90;;;;;;5018053;28;20464;-87
2022/09/26 03:44:31;;;;;;;4.43;1.40;;;7.00;99.90;;;;;;5027835;28;20742;-85
2022/09/26 03:47:12;;;;;;;4.50;1.70;;;7.10;99.90;;;;;;5029048;28;20400;-86
2022/09/26 03:49:42;;;;;;;4.82;1.65;;;7.00;99.90;;;;;;5027350;28;20406;-85
2022/09/26 03:52:12;;;;;;;2.65;1.40;;;7.00;99.90;;;;;;5018604;28;20784;-85
2022/09/26 03:54:41;;;;;;;4.22;1.42;;;7.00;99.90;;;;;;5024023;28;20398;-85
2022/09/26 03:57:11;;;;;;;4.47;1.50;;;7.00;99.90;;;;;;5019821;28;20406;-88
2022/09/26 03:59:46;;;;;;;3.50;1.52;;;7.00;99.90;;;;;;5015227;28;20484;-85
2022/09/26 04:02:16;;;;;;;2.80;1.40;;;7.00;99.90;;;;;;5015891;28;20403;-87
2022/09/26 04:04:47;;;;;;;3.70;1.60;;;7.00;99.90;;;;;;5008027;28;20923;-86
2022/09/26 04:07:15;;;;;;;4.70;1.50;;;6.90;99.90;;;;;;5008193;28;20908;-86
2022/09/26 04:09:43;;;;;;;3.38;1.70;;;7.00;99.90;;;;;;5024297;28;20482;-85
2022/09/26 04:12:11;;;;;;;4.32;1.70;;;7.00;99.90;;;;;;5007864;28;20419;-85
2022/09/26 04:14:42;;;;;;;5.45;2.00;;;6.90;99.90;;;;;;5003674;28;20823;-86
2022/09/26 04:17:10;;;;;;;2.53;1.67;;;6.90;99.90;;;;;;5023899;28;20487;-86
2022/09/26 04:19:42;;;;;;;2.35;1.45;;;6.80;99.90;;;;;;5012169;28;20816;-88
2022/09/26 04:22:10;;;;;;;2.30;1.50;;;6.80;99.90;;;;;;5027296;28;20433;-85
2022/09/26 04:24:38;;;;;;;3.90;1.60;;;6.80;99.90;;;;;;5027546;28;20451;-87
2022/09/26 04:27:07;;;;;;;2.90;1.70;;;6.90;99.90;;;;;;5027090;28;20409;-86
2022/09/26 04:29:35;;;;;;;2.90;1.60;;;6.90;99.90;;;;;;5023233;28;20549;-85
2022/09/26 04:32:27;;;;;;;2.95;1.70;;;6.90;99.90;;;;;;5008129;28;20403;-86
2022/09/26 04:35:27;;;;;;;3.22;1.52;;;6.80;99.90;;;;;;5004614;28;20397;-87
2022/09/26 04:37:55;;;;;;;3.47;1.58;;;6.80;99.90;;;;;;5027384;28;20409;-85
2022/09/26 04:40:22;;;;;;;2.83;1.55;;;6.90;99.90;;;;;;5028503;28;20394;-86
2022/09/26 04:43:01;;;;;;;4.00;2.10;;;6.80;99.90;;;;;;5026256;28;20413;-88
2022/09/26 04:45:28;;;;;;;4.70;2.22;;;6.80;99.90;;;;;;5025677;28;20408;-84
2022/09/26 04:47:56;;;;;;;2.75;1.60;;;6.90;99.90;;;;;;5025614;28;20466;-87
2022/09/26 04:50:25;;;;;;;6.13;2.03;;;6.90;99.90;;;;;;5027601;28;20401;-86
2022/09/26 04:53:06;;;;;;;6.57;2.40;;;6.90;99.90;;;;;;5025820;28;20409;-85
2022/09/26 04:55:43;;;;;;;4.93;1.92;;;6.90;99.90;;;;;;5027460;28;21171;-86
2022/09/26 04:58:13;;;;;;;5.13;2.03;;;6.90;99.90;;;;;;5022490;28;20399;-85
2022/09/26 05:00:46;;;;;;;4.57;2.10;;;6.90;99.90;;;;;;5011380;28;20402;-84
2022/09/26 05:03:20;;;;;;;5.07;2.03;;;7.00;99.90;;;;;;5004253;28;20405;-82
2022/09/26 05:05:48;;;;;;;4.70;2.13;;;7.00;99.90;;;;;;5004370;28;20480;-85
2022/09/26 05:08:16;;;;;;;5.10;2.20;;;7.00;99.90;;;;;;5005613;28;20403;-84
2022/09/26 05:10:55;;;;;;;4.20;1.98;;;7.00;99.90;;;;;;5009241;28;20395;-84
2022/09/26 05:13:25;;;;;;;5.15;2.15;;;7.00;99.90;;;;;;5008273;28;20395;-84
2022/09/26 05:15:54;;;;;;;2.80;1.60;;;7.00;99.90;;;;;;5009267;28;20399;-85
2022/09/26 05:18:22;;;;;;;4.20;1.80;;;7.10;99.90;;;;;;5025811;28;20430;-85
2022/09/26 05:20:51;;;;;;;4.47;1.85;;;7.20;99.90;;;;;;5009561;28;20395;-85
2022/09/26 05:26:27;;;;;;;5.35;2.40;;;7.10;99.90;;;;;;5010695;28;20398;-84
2022/09/26 05:29:00;;;;;;;5.03;2.08;;;7.20;99.90;;;;;;5008932;28;20486;-84
2022/09/26 05:32:00;;;;;;;6.07;2.90;;;7.20;99.90;;;;;;5007859;28;20473;-83
2022/09/26 05:34:32;;;;;;;4.90;2.63;;;7.20;99.90;;;;;;5008934;28;20399;-83
2022/09/26 05:37:00;;;;;;;6.50;2.72;;;7.20;99.90;;;;;;5008753;28;20395;-84
2022/09/26 05:42:15;;;;;;;6.35;3.65;;;7.30;99.90;;;;;;5008952;28;20484;-84
2022/09/26 05:44:42;;;;;;;4.57;3.00;;;7.40;99.90;;;;;;5008758;28;20399;-82
2022/09/26 05:47:10;;;;;;;6.15;3.58;;;7.40;99.90;;;;;;5009082;28;20461;-84
2022/09/26 05:49:38;;;;;;;4.72;3.60;;;7.50;99.90;;;;;;5008788;28;20409;-84
2022/09/26 05:52:08;;;;;;;7.30;5.00;;;7.50;99.90;;;;;;5008766;28;20469;-84
2022/09/26 05:54:35;;;;;;;5.10;3.53;;;7.50;99.90;;;;;;5009898;28;20438;-84
2022/09/26 05:57:20;;;;;;;6.18;3.65;;;7.50;99.90;;;;;;5008469;28;20972;-83
2022/09/26 05:59:53;;;;;;;5.68;3.63;;;7.50;99.90;;;;;;5008365;28;20406;-85
2022/09/26 06:02:23;;;;;;;5.72;3.50;;;7.60;99.90;;;;;;5009994;28;20422;-84
2022/09/26 06:05:14;;;;;;;5.73;3.30;;;7.60;99.90;;;;;;5008313;28;20414;-84
2022/09/26 06:08:11;;;;;;;4.77;3.50;;;7.60;99.90;;;;;;5002115;28;20413;-84
2022/09/26 06:11:04;;;;;;;5.30;3.67;;;7.60;99.90;;;;;;5008313;28;20403;-84
2022/09/26 06:13:33;;;;;;;5.30;3.50;;;7.60;99.90;;;;;;5007803;28;20419;-83
2022/09/26 06:16:05;;;;;;;5.03;3.30;;;7.60;99.90;;;;;;5008044;28;20402;-84
2022/09/26 06:18:37;;;;;;;5.13;3.60;;;7.60;99.90;;;;;;5009069;28;21010;-84
2022/09/26 06:21:08;;;;;;;4.78;3.47;;;7.60;99.90;;;;;;5006989;28;20403;-87
2022/09/26 06:23:37;;;;;;;5.60;3.55;;;7.60;99.90;;;;;;5008030;28;20410;-85
2022/09/26 06:26:11;;;;;;;8.38;3.58;;;7.60;99.90;;;;;;5007962;28;20407;-85
2022/09/26 06:28:39;;;;;;;5.23;3.60;;;7.60;99.90;;;;;;5009480;28;20989;-86
2022/09/26 06:31:15;;;;;;;5.25;3.33;;;7.70;99.90;;;;;;5007774;28;20403;-85
2022/09/26 06:34:07;;;;;;;6.28;3.55;;;7.60;99.90;;;;;;4981099;28;20431;-86
2022/09/26 06:36:47;;;;;;;4.38;3.17;;;7.60;99.90;;;;;;5008061;28;20945;-85
2022/09/26 06:39:14;;;;;;;5.57;3.50;;;7.70;99.90;;;;;;5009370;28;20398;-85
2022/09/26 06:41:44;;;;;;;4.57;3.30;;;7.70;99.90;;;;;;5024260;28;20426;-85
2022/09/26 06:44:35;;;;;;;3.90;3.25;;;7.70;99.90;;;;;;5000505;28;20490;-85
2022/09/26 06:47:28;;;;;;;5.13;3.50;;;7.80;99.90;;;;;;5003245;28;20403;-85
2022/09/26 06:50:16;;;;;;;3.70;2.92;;;7.80;99.90;;;;;;4987758;28;20395;-85
2022/09/26 06:52:50;;;;;;;4.95;3.33;;;7.70;99.90;;;;;;5007278;28;20411;-85
2022/09/26 06:55:18;;;;;;;5.50;3.53;;;7.80;99.90;;;;;;5007622;28;20415;-86
2022/09/26 06:57:46;;;;;;;5.30;3.40;;;7.80;99.90;;;;;;5007895;28;20395;-86
2022/09/26 07:00:17;;;;;;;5.00;3.33;;;7.80;99.90;;;;;;5007349;28;20920;-85
2022/09/26 07:03:08;;;;;;;3.95;3.10;;;7.90;99.90;;;;;;4989448;28;20410;-85
2022/09/26 07:05:45;;;;;;;4.45;3.20;;;7.90;99.90;;;;;;5007552;28;20406;-84
2022/09/26 07:08:13;;;;;;;5.30;3.53;;;7.90;99.90;;;;;;5007188;28;20495;-85
2022/09/26 07:10:41;;;;;;;4.80;3.07;;;8.00;99.90;;;;;;5007082;28;20491;-85
2022/09/26 07:13:18;;;;;;;6.05;3.10;;;8.00;99.90;;;;;;5008498;28;20816;-86
2022/09/26 07:15:47;;;;;;;6.80;3.53;;;8.00;99.90;;;;;;5023217;28;20410;-85
2022/09/26 07:18:46;;;;;;;6.18;3.55;;;8.10;99.90;;;;;;5023742;28;20826;-86
2022/09/26 07:21:19;;;;;;;7.97;3.67;;;8.10;99.90;;;;;;5007457;28;20403;-85
2022/09/26 07:23:49;;;;;;;7.28;3.00;;;8.20;99.90;;;;;;5008228;28;20399;-86
2022/09/26 07:26:19;;;;;;;5.28;3.38;;;8.30;99.90;;;;;;5007301;28;20403;-84
2022/09/26 07:28:47;;;;;;;5.60;2.78;;;8.40;99.90;;;;;;5008146;28;20498;-85
2022/09/26 07:31:25;;;;;;;6.00;3.13;;;8.40;99.90;;;;;;5006860;28;20427;-85
2022/09/26 07:34:06;;;;;;;5.22;2.90;;;8.50;99.90;;;;;;5006890;28;20407;-85
2022/09/26 07:36:35;;;;;;;5.22;2.60;;;8.50;99.90;;;;;;5006969;28;20894;-86
2022/09/26 07:39:03;;;;;;;4.65;2.72;;;8.50;99.90;;;;;;5022952;28;20486;-85
2022/09/26 07:41:31;;;;;;;6.78;2.63;;;8.50;99.90;;;;;;5007057;28;20406;-85
2022/09/26 07:43:59;;;;;;;4.60;2.63;;;8.60;99.90;;;;;;5007983;28;20402;-86
2022/09/26 07:52:47;;;;;;;6.20;2.90;;;8.70;99.90;;;;;;5007951;28;20411;-87
2022/09/26 07:55:27;;;;;;;5.40;2.70;;;8.70;99.90;;;;;;5008092;28;20800;-86
2022/09/26 07:58:34;;;;;;;9.35;3.35;;;8.70;99.90;;;;;;4995118;28;20406;-85
2022/09/26 08:01:22;;;;;;;7.45;3.28;;;8.70;99.90;;;;;;5006311;28;20486;-85
2022/09/26 08:04:13;;;;;;;8.82;3.45;;;8.80;99.90;;;;;;4999595;28;20538;-87
2022/09/26 08:06:41;;;;;;;5.85;2.58;;;8.70;99.90;;;;;;5006332;28;20421;-85
2022/09/26 08:09:09;;;;;;;8.13;3.00;;;8.80;99.90;;;;;;5007880;28;20414;-85
2022/09/26 08:12:06;;;;;;;7.35;3.22;;;8.80;99.90;;;;;;4970842;28;20422;-85
2022/09/26 08:14:50;;;;;;;7.50;3.50;;;8.90;99.90;;;;;;5006250;28;20481;-86
2022/09/26 08:17:22;;;;;;;7.43;3.05;;;9.00;99.90;;;;;;5006437;28;20399;-86
2022/09/26 08:19:49;;;;;;;7.82;3.22;;;9.00;99.90;;;;;;5006254;28;20407;-82
2022/09/26 08:22:18;;;;;;;9.02;3.53;;;9.00;99.90;;;;;;5006232;28;20481;-83
2022/09/26 08:24:49;;;;;;;6.03;2.70;;;9.10;99.90;;;;;;5005865;28;20407;-83
2022/09/26 08:27:37;;;;;;;7.90;3.47;;;9.20;99.90;;;;;;4986112;28;20488;-85
2022/09/26 08:30:06;;;;;;;5.63;2.55;;;9.20;99.90;;;;;;5006025;28;20403;-84
2022/09/26 08:32:34;;;;;;;7.28;3.22;;;9.30;99.90;;;;;;5007707;28;20414;-84
2022/09/26 08:35:02;;;;;;;7.05;3.10;;;9.30;99.90;;;;;;5005937;28;20402;-83
2022/09/26 08:37:32;;;;;;;7.47;3.20;;;9.40;99.90;;;;;;5007396;28;20398;-84
2022/09/26 08:40:32;;;;;;;8.23;3.25;;;9.40;99.90;;;;;;4991484;28;20403;-86
2022/09/26 08:43:28;;;;;;;7.50;3.17;;;9.50;99.90;;;;;;4986110;28;20387;-85
2022/09/26 08:46:41;;;;;;;5.47;2.47;;;9.50;99.90;;;;;;5011101;28;20407;-85
2022/09/26 08:49:41;;;;;;;9.52;2.80;;;9.50;99.90;;;;;;5009971;28;20395;-85
2022/09/26 08:52:24;;;;;;;7.95;2.65;;;9.60;99.90;;;;;;5009749;28;20396;-85
2022/09/26 08:54:58;;;;;;;7.13;2.95;;;9.60;99.90;;;;;;5009785;28;20889;-85
2022/09/26 08:57:36;;;;;;;11.47;3.03;;;9.70;99.90;;;;;;5011059;28;20397;-85
2022/09/26 09:00:25;;;;;;;11.17;3.40;;;9.80;99.90;;;;;;5025958;28;20478;-84
2022/09/26 09:03:10;;;;;;;7.55;2.45;;;9.80;99.90;;;;;;5009584;28;20434;-85
2022/09/26 09:05:58;;;;;;;3.45;2.10;;;9.80;99.90;;;;;;5009739;28;20406;-85
2022/09/26 09:08:50;;;;;;;2.53;1.75;;;9.90;99.90;;;;;;5011065;28;20395;-85
2022/09/26 09:11:55;;;;;;;3.38;2.10;;;10.00;99.90;;;;;;5007696;28;20427;-82
2022/09/26 09:15:02;;;;;;;4.22;1.90;;;10.10;99.90;;;;;;5009154;28;20445;-83
2022/09/26 09:18:32;;;;;;;3.25;2.28;;;10.30;99.90;;;;;;4999995;28;20509;-85
2022/09/26 09:21:58;;;;;;;3.13;2.15;;;10.40;99.90;;;;;;5009300;28;20406;-85
2022/09/26 09:25:03;;;;;;;4.60;1.80;;;10.50;99.90;;;;;;5009316;28;20399;-84
2022/09/26 09:27:41;;;;;;;2.95;1.90;;;10.50;99.90;;;;;;5008934;28;20399;-85
2022/09/26 09:30:50;;;;;;;4.10;2.00;;;10.70;99.90;;;;;;5008751;28;20481;-85
2022/09/26 09:33:43;;;;;;;3.43;2.20;;;10.80;99.90;;;;;;5010117;28;20418;-85
2022/09/26 09:36:44;;;;;;;4.45;2.08;;;10.90;99.90;;;;;;5001946;28;20569;-85
2022/09/26 09:39:33;;;;;;;3.28;2.20;;;10.90;99.90;;;;;;5008756;28;20718;-85
2022/09/26 09:42:39;;;;;;;3.40;1.87;;;10.90;99.90;;;;;;5009147;28;20399;-83
2022/09/26 09:45:29;;;;;;;4.10;2.10;;;11.10;99.90;;;;;;5010555;28;20983;-85
2022/09/26 09:47:57;;;;;;;3.60;2.10;;;11.10;99.90;;;;;;5004000;28;20495;-86
2022/09/26 09:50:40;;;;;;;3.30;1.90;;;11.00;99.90;;;;;;5008644;28;20391;-85
2022/09/26 09:53:26;;;;;;;9.63;2.30;;;11.30;99.90;;;;;;5024765;28;20415;-84
2022/09/26 09:56:15;;;;;;;3.28;1.90;;;11.50;99.90;;;;;;5008632;28;20446;-85
2022/09/26 09:58:48;;;;;;;3.85;2.00;;;11.40;99.90;;;;;;5008383;28;20895;-85
2022/09/26 10:01:27;;;;;;;3.92;2.33;;;11.40;99.90;;;;;;5010033;28;20395;-84
2022/09/26 10:04:22;;;;;;;3.28;2.10;;;11.60;99.90;;;;;;5008568;28;20457;-84
2022/09/26 10:06:50;;;;;;;4.25;2.15;;;11.70;99.90;;;;;;5009856;28;20437;-85
2022/09/26 10:09:26;;;;;;;5.40;2.10;;;11.50;99.90;;;;;;5025085;28;20402;-85
2022/09/26 10:12:31;;;;;;;4.32;1.80;;;11.40;99.90;;;;;;5009777;28;20555;-86
2022/09/26 10:15:18;;;;;;;3.65;1.80;;;11.20;99.90;;;;;;5009679;28;20391;-85
2022/09/26 10:18:05;;;;;;;5.43;2.00;;;11.40;99.90;;;;;;5009157;28;20386;-86
2022/09/26 10:21:08;;;;;;;4.28;1.90;;;11.50;99.90;;;;;;5007950;28;20485;-85
2022/09/26 10:23:45;;;;;;;4.75;2.05;;;11.70;99.90;;;;;;5009483;28;20399;-84
2022/09/26 10:26:49;;;;;;;2.90;1.40;;;12.00;99.90;;;;;;4999076;28;20415;-83
2022/09/26 10:29:35;;;;;;;3.08;1.98;;;12.00;99.90;;;;;;5008239;28;20490;-85
2022/09/26 10:32:05;;;;;;;2.50;1.63;;;12.10;99.90;;;;;;5008290;28;20482;-86
2022/09/26 10:34:34;;;;;;;3.65;1.40;;;12.10;99.90;;;;;;5007804;28;21022;-86
2022/09/26 10:37:24;;;;;;;4.20;1.80;;;12.00;99.90;;;;;;5007730;28;20407;-85
2022/09/26 10:40:46;;;;;;;3.17;1.90;;;11.80;99.90;;;;;;5007896;28;20433;-83
2022/09/26 10:43:33;;;;;;;2.63;1.40;;;11.90;99.90;;;;;;5007695;28;20465;-86
2022/09/26 10:46:20;;;;;;;3.22;1.70;;;11.80;99.90;;;;;;5007615;28;20407;-84
2022/09/26 10:49:16;;;;;;;3.38;1.52;;;11.90;99.90;;;;;;5008785;28;20756;-85
2022/09/26 10:52:36;;;;;;;3.07;1.50;;;12.20;99.90;;;;;;5008869;28;20428;-86
2022/09/26 10:55:25;;;;;;;4.65;1.70;;;12.30;99.90;;;;;;4995076;28;20403;-85
2022/09/26 10:57:56;;;;;;;3.97;1.70;;;12.30;99.90;;;;;;5009443;28;20403;-85
2022/09/26 11:00:39;;;;;;;3.35;1.80;;;12.50;99.90;;;;;;5007331;28;20399;-86
2022/09/26 11:03:23;;;;;;;3.05;1.50;;;12.50;99.90;;;;;;5008983;28;20407;-85
2022/09/26 11:06:44;;;;;;;2.00;1.25;;;12.70;99.90;;;;;;5001521;28;20797;-85
2022/09/26 11:09:31;;;;;;;3.97;1.40;;;12.40;99.90;;;;;;4999877;28;20396;-83
2022/09/26 11:12:30;;;;;;;2.47;1.38;;;12.30;99.90;;;;;;5008631;28;20402;-84
2022/09/26 11:15:09;;;;;;;2.25;1.50;;;12.20;99.90;;;;;;5007101;28;20402;-85
2022/09/26 11:17:50;;;;;;;2.50;1.30;;;12.10;99.90;;;;;;5007224;28;20391;-83
2022/09/26 11:20:31;;;;;;;3.70;1.52;;;12.10;99.90;;;;;;5007148;28;20938;-86
2022/09/26 11:23:23;;;;;;;2.78;1.38;;;12.50;99.90;;;;;;5006859;28;20434;-84
2022/09/26 11:26:33;;;;;;;2.75;1.33;;;12.60;99.90;;;;;;5006898;28;20407;-85
2022/09/26 11:29:46;;;;;;;3.05;1.35;;;12.50;99.90;;;;;;4985875;28;20896;-84
2022/09/26 11:32:24;;;;;;;3.55;1.48;;;12.60;99.90;;;;;;4977139;28;20465;-84
2022/09/26 11:34:53;;;;;;;2.25;1.35;;;12.50;99.90;;;;;;5008316;28;20403;-86
2022/09/26 11:37:44;;;;;;;5.95;1.80;;;12.50;99.90;;;;;;5008033;28;20398;-85
2022/09/26 11:40:41;;;;;;;5.80;1.60;;;12.40;99.90;;;;;;4979843;28;20395;-84
2022/09/26 11:43:38;;;;;;;4.95;1.50;;;12.50;99.90;;;;;;5008182;28;20453;-85
2022/09/26 11:46:34;;;;;;;2.97;1.45;;;12.90;99.90;;;;;;4982026;28;20909;-85
2022/09/26 11:49:26;;;;;;;1.85;1.30;;;12.70;99.90;;;;;;5006598;28;20403;-86
2022/09/26 11:52:40;;;;;;;2.17;1.27;;;12.60;99.90;;;;;;4987165;28;20395;-85
2022/09/26 11:55:29;;;;;;;3.20;1.38;;;12.90;99.90;;;;;;5006407;28;20406;-85
2022/09/26 11:58:38;;;;;;;4.40;1.40;;;13.10;99.90;;;;;;5008459;28;20383;-85
2022/09/26 12:01:30;;;;;;;4.15;1.30;;;13.40;99.90;;;;;;5007939;28;20873;-84
2022/09/26 12:04:10;;;;;;;3.58;1.40;;;13.80;99.90;;;;;;5007797;28;20399;-86
2022/09/26 12:06:48;;;;;;;3.28;1.48;;;13.70;99.90;;;;;;5008004;28;20414;-84
2022/09/26 12:09:58;;;;;;;3.95;1.33;;;13.50;99.90;;;;;;5007747;28;20423;-85
2022/09/26 12:12:40;;;;;;;2.75;1.55;;;13.20;99.90;;;;;;5007919;28;20398;-85
2022/09/26 12:15:22;;;;;;;3.28;1.65;;;13.10;99.90;;;;;;5007829;28;20397;-84
2022/09/26 12:17:55;;;;;;;1.63;1.10;;;13.10;99.90;;;;;;5007669;28;20441;-84
2022/09/26 12:20:38;;;;;;;1.88;1.27;;;13.40;99.90;;;;;;5011217;28;20397;-85
2022/09/26 12:23:28;;;;;;;3.10;1.40;;;13.80;99.90;;;;;;5011885;28;20828;-83
2022/09/26 12:26:13;;;;;;;3.40;1.30;;;14.00;99.90;;;;;;5011559;28;20486;-84
2022/09/26 12:28:47;;;;;;;2.25;1.20;;;14.20;99.90;;;;;;5011502;28;20758;-85
2022/09/26 12:31:33;;;;;;;2.17;1.20;;;14.10;99.90;;;;;;5011560;28;20453;-85
2022/09/26 12:34:20;;;;;;;1.67;1.10;;;14.30;99.90;;;;;;5011443;28;20414;-85
2022/09/26 12:37:13;;;;;;;3.20;1.20;;;14.20;99.90;;;;;;5011442;28;20383;-85
2022/09/26 12:40:00;;;;;;;2.55;1.10;;;14.20;99.90;;;;;;5011324;28;20386;-84
2022/09/26 12:43:05;;;;;;;2.83;1.20;;;14.00;99.90;;;;;;5011518;28;20391;-86
2022/09/26 12:46:11;;;;;;;4.70;1.27;;;14.20;99.90;;;;;;5011614;28;20386;-85
2022/09/26 12:49:08;;;;;;;2.03;1.30;;;14.30;99.90;;;;;;5011257;28;20445;-84
2022/09/26 12:51:46;;;;;;;1.85;1.13;;;14.50;99.90;;;;;;5011204;28;20927;-85
2022/09/26 12:54:27;;;;;;;4.88;1.20;;;14.80;99.90;;;;;;5011258;28;20416;-84
2022/09/26 12:57:12;;;;;;;1.65;0.93;;;14.90;99.90;;;;;;5009676;28;20391;-86
2022/09/26 13:00:17;;;;;;;1.50;1.10;;;14.60;99.90;;;;;;5009754;28;20387;-84
2022/09/26 13:03:15;;;;;;;2.00;1.10;;;14.30;99.90;;;;;;5010918;28;20452;-85
2022/09/26 13:06:12;;;;;;;2.55;1.20;;;14.30;99.90;;;;;;5010901;28;20419;-84
2022/09/26 13:08:59;;;;;;;1.70;1.10;;;14.30;99.90;;;;;;5010895;28;20445;-84
2022/09/26 13:11:58;;;;;;;2.90;1.30;;;14.10;99.90;;;;;;5010661;28;20390;-86
2022/09/26 13:14:49;;;;;;;3.72;1.15;;;14.00;99.90;;;;;;5010981;28;20897;-84
2022/09/26 13:17:22;;;;;;;1.73;1.15;;;13.80;99.90;;;;;;5010693;28;20391;-85
2022/09/26 13:20:02;;;;;;;4.47;1.10;;;14.00;99.90;;;;;;5009293;28;20522;-85
2022/09/26 13:22:33;;;;;;;2.05;1.10;;;14.40;99.90;;;;;;5009599;28;20749;-84
2022/09/26 13:25:10;;;;;;;2.00;1.10;;;14.50;99.90;;;;;;5010488;28;20415;-85
2022/09/26 13:27:51;;;;;;;4.20;1.13;;;14.60;99.90;;;;;;5010522;28;20402;-84
2022/09/26 13:30:23;;;;;;;2.42;1.13;;;14.70;99.90;;;;;;5009905;28;20399;-85
2022/09/26 13:33:13;;;;;;;2.00;1.20;;;14.60;99.90;;;;;;5010647;28;20505;-84
2022/09/26 13:35:46;;;;;;;2.10;1.13;;;14.60;99.90;;;;;;5010383;28;20911;-85
2022/09/26 13:38:52;;;;;;;4.60;1.10;;;14.60;99.90;;;;;;5010426;28;20398;-86
2022/09/26 13:41:39;;;;;;;2.92;1.00;;;14.50;99.90;;;;;;5010485;28;20387;-85
2022/09/26 13:44:29;;;;;;;1.38;1.17;;;14.60;99.90;;;;;;5010204;28;20391;-85
2022/09/26 13:46:58;;;;;;;3.63;1.27;;;14.40;99.90;;;;;;5008899;28;20947;-84
2022/09/26 13:49:32;;;;;;;2.47;1.20;;;14.20;99.90;;;;;;5010608;28;20440;-84
2022/09/26 13:52:25;;;;;;;2.47;1.30;;;14.00;99.90;;;;;;5011280;28;20968;-85
2022/09/26 13:55:18;;;;;;;2.53;1.23;;;13.90;99.90;;;;;;5010019;28;20469;-85
2022/09/26 13:58:02;;;;;;;2.85;1.20;;;13.90;99.90;;;;;;5009858;28;20403;-85
2022/09/26 14:00:30;;;;;;;2.28;1.10;;;14.30;99.90;;;;;;5009914;28;20415;-84
2022/09/26 14:03:22;;;;;;;2.17;1.10;;;14.50;99.90;;;;;;5010141;28;20911;-85
2022/09/26 14:05:51;;;;;;;2.00;1.20;;;14.70;99.90;;;;;;5004970;28;20411;-85
2022/09/26 14:11:34;;;;;;;2.25;1.10;;;14.90;99.90;;;;;;5009683;28;20398;-85
2022/09/26 14:14:17;;;;;;;3.35;1.30;;;15.00;99.90;;;;;;5009469;28;20867;-86
2022/09/26 14:16:48;;;;;;;4.60;1.35;;;15.10;99.90;;;;;;5008129;28;20801;-84
2022/09/26 14:19:43;;;;;;;3.38;1.45;;;15.10;99.90;;;;;;5009703;28;20882;-85
2022/09/26 14:22:17;;;;;;;2.63;1.30;;;14.90;99.90;;;;;;5009781;28;20967;-85